Time;durP1;ratioP1;P1;durP2;ratioP2;P2;SDS_P1;SDS_P2;PMS_P1;PMS_P2;Temp;Humidity;BMP_temperature;BMP_pressure;BME280_temperature;BME280_humidity;BME280_pressure;Samples;Min_cycle;Max_cycle;Signal;HPM_P1;HPM_P2
2022/03/25 00:01:38;;;;;;;69.57;32.50;;;12.90;99.90;;;;;;4070587;29;20184;-90
2022/03/25 00:03:39;;;;;;;63.60;32.13;;;12.80;99.90;;;;;;4070046;29;20186;-89
2022/03/25 00:05:40;;;;;;;71.07;34.13;;;12.80;99.90;;;;;;4069994;29;20238;-89
2022/03/25 00:07:41;;;;;;;63.50;32.47;;;12.70;99.90;;;;;;4069082;29;20664;-90
2022/03/25 00:09:42;;;;;;;67.47;33.90;;;12.70;99.90;;;;;;4054092;29;20189;-89
2022/03/25 00:11:43;;;;;;;67.67;34.37;;;12.60;99.90;;;;;;4053980;29;20668;-90
2022/03/25 00:13:43;;;;;;;63.47;32.50;;;12.70;99.90;;;;;;4085314;29;20176;-89
2022/03/25 00:15:45;;;;;;;66.20;33.37;;;12.60;99.90;;;;;;4054158;29;20205;-90
2022/03/25 00:17:46;;;;;;;64.10;33.57;;;12.60;99.90;;;;;;4053966;29;20185;-89
2022/03/25 00:19:46;;;;;;;61.17;32.20;;;12.60;99.90;;;;;;4053798;29;20276;-89
2022/03/25 00:21:47;;;;;;;61.37;34.20;;;12.50;99.90;;;;;;4085200;29;20182;-89
2022/03/25 00:23:48;;;;;;;68.77;35.57;;;12.40;99.90;;;;;;4053865;29;20260;-90
2022/03/25 00:25:48;;;;;;;66.23;33.73;;;12.30;99.90;;;;;;4069142;29;20206;-90
2022/03/25 00:27:49;;;;;;;69.30;34.43;;;12.30;99.90;;;;;;4053729;29;20271;-89
2022/03/25 00:29:50;;;;;;;69.70;34.93;;;12.30;99.90;;;;;;4069598;29;20177;-89
2022/03/25 00:31:52;;;;;;;67.87;34.10;;;12.00;99.90;;;;;;4054107;29;20212;-90
2022/03/25 00:33:53;;;;;;;66.17;34.50;;;11.70;99.90;;;;;;4053775;29;20180;-90
2022/03/25 00:35:54;;;;;;;70.93;34.43;;;11.70;99.90;;;;;;4069403;29;20196;-90
2022/03/25 00:37:55;;;;;;;73.57;36.23;;;11.50;99.90;;;;;;4085117;29;20227;-90
2022/03/25 00:39:55;;;;;;;74.57;36.17;;;11.40;99.90;;;;;;4069346;29;20195;-90
2022/03/25 00:41:56;;;;;;;75.43;36.33;;;11.50;99.90;;;;;;4069178;29;20172;-90
2022/03/25 00:43:57;;;;;;;66.27;34.60;;;11.40;99.90;;;;;;4053689;29;20177;-89
2022/03/25 00:45:58;;;;;;;71.67;37.83;;;11.10;99.90;;;;;;4054329;29;20260;-90
2022/03/25 00:47:59;;;;;;;70.87;35.17;;;10.90;99.90;;;;;;4069271;29;20176;-90
2022/03/25 00:50:00;;;;;;;75.53;37.73;;;10.60;99.90;;;;;;4053638;29;20180;-89
2022/03/25 00:52:02;;;;;;;73.57;37.77;;;10.60;99.90;;;;;;4053571;29;20196;-90
2022/03/25 00:54:03;;;;;;;68.63;36.17;;;10.40;99.90;;;;;;4053358;29;20188;-90
2022/03/25 00:56:05;;;;;;;76.07;37.63;;;10.30;99.90;;;;;;4053451;29;20197;-91
2022/03/25 00:58:06;;;;;;;71.30;37.23;;;10.20;99.90;;;;;;4053664;29;20188;-90
2022/03/25 01:00:08;;;;;;;77.53;38.23;;;10.10;99.90;;;;;;4069163;29;20176;-89
2022/03/25 01:02:08;;;;;;;77.17;37.73;;;10.20;99.90;;;;;;4069057;29;20200;-90
2022/03/25 01:04:09;;;;;;;78.07;37.40;;;10.40;99.90;;;;;;4053605;29;20760;-90
2022/03/25 01:06:10;;;;;;;86.37;38.27;;;10.40;99.90;;;;;;4068959;29;20202;-90
2022/03/25 01:08:15;;;;;;;74.50;37.53;;;10.30;99.90;;;;;;4053894;29;20759;-90
2022/03/25 01:10:15;;;;;;;69.80;37.13;;;10.30;99.90;;;;;;4053397;29;20212;-90
2022/03/25 01:12:17;;;;;;;74.63;38.27;;;10.60;99.90;;;;;;4068805;29;20224;-89
2022/03/25 01:14:18;;;;;;;78.00;38.70;;;11.00;99.90;;;;;;4084842;29;20219;-90
2022/03/25 01:16:18;;;;;;;82.93;38.23;;;11.50;99.90;;;;;;4068862;29;20740;-89
2022/03/25 01:18:19;;;;;;;75.60;38.00;;;11.70;99.90;;;;;;4068470;29;20180;-89
2022/03/25 01:20:21;;;;;;;81.33;37.97;;;11.70;99.90;;;;;;4053046;29;20631;-90
2022/03/25 01:22:22;;;;;;;83.20;39.10;;;11.80;99.90;;;;;;4068772;29;20687;-89
2022/03/25 01:24:24;;;;;;;79.20;39.80;;;11.80;99.90;;;;;;4068842;29;20215;-89
2022/03/25 01:26:25;;;;;;;76.50;39.63;;;11.80;99.90;;;;;;4068772;29;20629;-90
2022/03/25 01:28:26;;;;;;;78.93;39.27;;;11.90;99.90;;;;;;4068868;29;20184;-89
2022/03/25 01:30:28;;;;;;;79.33;39.60;;;11.90;99.90;;;;;;4084317;29;20171;-88
2022/03/25 01:32:29;;;;;;;84.23;39.00;;;11.90;99.90;;;;;;4068652;29;20279;-89
2022/03/25 01:34:30;;;;;;;79.93;39.70;;;11.80;99.90;;;;;;4068834;29;20192;-89
2022/03/25 01:36:30;;;;;;;80.13;39.80;;;11.70;99.90;;;;;;4068614;29;20196;-89
2022/03/25 01:38:32;;;;;;;79.90;39.83;;;11.70;99.90;;;;;;4068574;29;20630;-88
2022/03/25 01:40:34;;;;;;;77.87;41.10;;;11.60;99.90;;;;;;4068642;29;20224;-88
2022/03/25 01:42:41;;;;;;;76.17;39.77;;;11.40;99.90;;;;;;4052668;29;20184;-89
2022/03/25 01:44:42;;;;;;;84.37;41.50;;;11.30;99.90;;;;;;4068359;29;20180;-89
2022/03/25 01:46:43;;;;;;;77.73;38.57;;;11.00;99.90;;;;;;4052690;29;20334;-89
2022/03/25 01:48:43;;;;;;;77.30;39.03;;;10.50;99.90;;;;;;4068786;29;20177;-89
2022/03/25 01:50:46;;;;;;;79.70;39.63;;;10.30;99.90;;;;;;4052681;29;20185;-89
2022/03/25 01:52:50;;;;;;;83.57;39.60;;;10.50;99.90;;;;;;4068394;29;20204;-88
2022/03/25 01:54:51;;;;;;;86.17;42.07;;;11.00;99.90;;;;;;4052901;29;20173;-88
2022/03/25 01:57:05;;;;;;;82.57;40.97;;;11.30;99.90;;;;;;4052863;29;20208;-89
2022/03/25 01:59:06;;;;;;;77.37;41.63;;;11.50;99.90;;;;;;4068507;29;20263;-89
2022/03/25 02:01:09;;;;;;;85.90;40.87;;;11.60;99.90;;;;;;4052990;29;20180;-89
2022/03/25 02:03:10;;;;;;;76.43;41.13;;;11.70;99.90;;;;;;4052619;29;20176;-88
2022/03/25 02:05:11;;;;;;;76.63;40.77;;;11.70;99.90;;;;;;4052818;29;20176;-89
2022/03/25 02:07:12;;;;;;;85.93;41.97;;;11.60;99.90;;;;;;4068297;29;20356;-88
2022/03/25 02:09:13;;;;;;;76.70;40.37;;;11.50;99.90;;;;;;4068448;29;20203;-89
2022/03/25 02:11:14;;;;;;;79.37;40.17;;;11.40;99.90;;;;;;4068326;29;20180;-88
2022/03/25 02:13:14;;;;;;;79.03;40.83;;;11.10;99.90;;;;;;4068170;29;20226;-89
2022/03/25 02:15:34;;;;;;;81.30;41.17;;;11.10;99.90;;;;;;4053047;29;20173;-89
2022/03/25 02:17:41;;;;;;;83.60;43.40;;;11.10;99.90;;;;;;4053225;29;20657;-89
2022/03/25 02:19:42;;;;;;;77.03;40.43;;;11.20;99.90;;;;;;4052621;29;20166;-89
2022/03/25 02:21:44;;;;;;;86.57;41.53;;;11.10;99.90;;;;;;4083854;29;20544;-88
2022/03/25 02:23:47;;;;;;;80.30;41.07;;;11.10;99.90;;;;;;4068556;29;20199;-89
2022/03/25 02:25:52;;;;;;;83.93;42.17;;;11.00;99.90;;;;;;4052620;29;20201;-89
2022/03/25 02:27:53;;;;;;;81.40;41.10;;;10.70;99.90;;;;;;4052567;29;20180;-87
2022/03/25 02:29:54;;;;;;;78.53;40.13;;;10.60;99.90;;;;;;4068567;29;20180;-89
2022/03/25 02:31:55;;;;;;;71.17;39.20;;;10.10;99.90;;;;;;4071253;29;20279;-89
2022/03/25 02:34:01;;;;;;;81.20;41.03;;;9.50;99.90;;;;;;4086904;29;20176;-88
2022/03/25 02:36:02;;;;;;;81.83;40.50;;;9.20;99.90;;;;;;4071068;29;20250;-88
2022/03/25 02:38:04;;;;;;;88.33;41.53;;;9.10;99.90;;;;;;4055548;29;20217;-88
2022/03/25 02:40:06;;;;;;;87.30;43.97;;;9.30;99.90;;;;;;4055576;29;20530;-89
2022/03/25 02:42:08;;;;;;;92.37;44.43;;;9.30;99.90;;;;;;4055556;29;20185;-88
2022/03/25 02:44:10;;;;;;;83.73;43.50;;;9.70;99.90;;;;;;4055647;29;20217;-88
2022/03/25 02:46:12;;;;;;;89.50;43.50;;;9.70;99.90;;;;;;4055392;29;20197;-88
2022/03/25 02:48:12;;;;;;;87.10;42.43;;;9.60;99.90;;;;;;4055372;29;20200;-87
2022/03/25 02:50:14;;;;;;;91.50;43.87;;;9.60;99.90;;;;;;4086709;29;20184;-87
2022/03/25 02:52:14;;;;;;;84.90;43.17;;;9.40;99.90;;;;;;4070783;29;20223;-88
2022/03/25 02:54:15;;;;;;;85.60;42.70;;;9.30;99.90;;;;;;4070829;29;20208;-88
2022/03/25 02:56:17;;;;;;;92.63;45.00;;;9.10;99.90;;;;;;4055224;29;20235;-88
2022/03/25 02:58:19;;;;;;;94.47;44.63;;;9.00;99.90;;;;;;4055282;29;20658;-87
2022/03/25 03:00:20;;;;;;;91.00;46.10;;;9.40;99.90;;;;;;4055216;29;20670;-87
2022/03/25 03:02:21;;;;;;;98.47;46.20;;;9.80;99.90;;;;;;4070724;29;20180;-87
2022/03/25 03:04:22;;;;;;;84.37;43.10;;;10.00;99.90;;;;;;4086229;29;20175;-88
2022/03/25 03:06:22;;;;;;;95.20;46.83;;;9.90;99.90;;;;;;4054578;29;20209;-88
2022/03/25 03:08:23;;;;;;;93.63;47.43;;;9.60;99.90;;;;;;4055097;29;20523;-88
2022/03/25 03:10:25;;;;;;;90.60;45.97;;;9.90;99.90;;;;;;4070810;29;20717;-88
2022/03/25 03:12:25;;;;;;;94.57;44.93;;;10.10;99.90;;;;;;4070779;29;20291;-87
2022/03/25 03:14:26;;;;;;;90.90;44.70;;;10.30;99.90;;;;;;4070546;29;20184;-87
2022/03/25 03:16:27;;;;;;;98.07;46.80;;;10.50;99.90;;;;;;4070631;29;20196;-88
2022/03/25 03:18:28;;;;;;;91.77;46.43;;;10.40;99.90;;;;;;4054913;29;20209;-88
2022/03/25 03:20:29;;;;;;;98.07;47.60;;;10.40;99.90;;;;;;4054979;29;20324;-87
2022/03/25 03:22:30;;;;;;;96.00;47.07;;;10.50;99.90;;;;;;4054815;29;20218;-88
2022/03/25 03:24:31;;;;;;;97.27;44.90;;;10.50;99.90;;;;;;4070414;29;20192;-87
2022/03/25 03:26:32;;;;;;;98.43;45.20;;;10.50;99.90;;;;;;4054694;29;20197;-87
2022/03/25 03:28:32;;;;;;;102.37;46.80;;;10.50;99.90;;;;;;4070434;29;20195;-88
2022/03/25 03:30:33;;;;;;;98.67;46.87;;;10.50;99.90;;;;;;4070641;29;20582;-87
2022/03/25 03:32:35;;;;;;;101.97;46.90;;;10.60;99.90;;;;;;4054725;29;20197;-88
2022/03/25 03:34:36;;;;;;;92.57;46.03;;;10.50;99.90;;;;;;4054944;29;20231;-88
2022/03/25 03:36:38;;;;;;;94.87;45.67;;;10.40;99.90;;;;;;4054617;29;20201;-88
2022/03/25 03:38:39;;;;;;;103.97;46.83;;;10.50;99.90;;;;;;4054646;29;20190;-88
2022/03/25 03:40:39;;;;;;;93.90;44.60;;;10.50;99.90;;;;;;4054470;29;20583;-88
2022/03/25 03:42:41;;;;;;;105.07;47.77;;;10.50;99.90;;;;;;4069176;29;20279;-87
2022/03/25 03:44:41;;;;;;;96.97;47.97;;;10.30;99.90;;;;;;4070468;29;20251;-88
2022/03/25 03:46:42;;;;;;;92.90;44.67;;;10.30;99.90;;;;;;4054410;29;20193;-88
2022/03/25 03:48:43;;;;;;;98.40;47.53;;;10.30;99.90;;;;;;4054271;29;20233;-88
2022/03/25 03:50:45;;;;;;;100.43;47.80;;;10.20;99.90;;;;;;4070023;29;20224;-87
2022/03/25 03:52:46;;;;;;;88.13;43.83;;;10.10;99.90;;;;;;4069970;29;20589;-88
2022/03/25 03:54:46;;;;;;;96.63;41.97;;;9.70;99.90;;;;;;4054370;29;20185;-87
2022/03/25 03:57:08;;;;;;;90.50;45.00;;;9.30;99.90;;;;;;4070202;29;20243;-88
2022/03/25 03:59:09;;;;;;;96.30;47.27;;;9.00;99.90;;;;;;4054339;29;20187;-88
2022/03/25 04:01:10;;;;;;;96.87;46.17;;;8.90;99.90;;;;;;4054221;29;20725;-87
2022/03/25 04:03:11;;;;;;;93.23;46.00;;;9.30;99.90;;;;;;4069765;29;20594;-88
2022/03/25 04:05:13;;;;;;;101.73;46.63;;;9.60;99.90;;;;;;4069813;29;20553;-88
2022/03/25 04:07:15;;;;;;;96.00;46.37;;;9.90;99.90;;;;;;4085604;29;20195;-88
2022/03/25 04:09:15;;;;;;;98.63;48.47;;;10.00;99.90;;;;;;4070168;29;20176;-88
2022/03/25 04:11:16;;;;;;;99.30;49.03;;;10.10;99.90;;;;;;4054157;29;20195;-87
2022/03/25 04:13:17;;;;;;;92.47;46.07;;;10.20;99.90;;;;;;4069749;29;20688;-88
2022/03/25 04:15:17;;;;;;;94.70;46.50;;;10.10;99.90;;;;;;4069849;29;20259;-88
2022/03/25 04:17:19;;;;;;;92.60;46.83;;;10.00;99.90;;;;;;4054170;29;20169;-87
2022/03/25 04:19:20;;;;;;;103.07;47.60;;;9.80;99.90;;;;;;4069729;29;20240;-87
2022/03/25 04:21:21;;;;;;;93.07;47.07;;;10.10;99.90;;;;;;4069617;29;20176;-88
2022/03/25 04:23:21;;;;;;;98.77;47.03;;;10.10;99.90;;;;;;4069638;29;20180;-87
2022/03/25 04:25:22;;;;;;;99.50;46.53;;;10.20;99.90;;;;;;4054076;29;20169;-87
2022/03/25 04:27:23;;;;;;;94.17;45.17;;;10.20;99.90;;;;;;4053814;29;20648;-88
2022/03/25 04:29:24;;;;;;;95.70;46.40;;;10.10;99.90;;;;;;4085166;29;20669;-88
2022/03/25 04:31:24;;;;;;;94.27;45.43;;;10.10;99.90;;;;;;4054032;29;20714;-88
2022/03/25 04:33:25;;;;;;;98.50;45.87;;;10.00;99.90;;;;;;4053820;29;20220;-87
2022/03/25 04:35:27;;;;;;;94.57;46.67;;;10.00;99.90;;;;;;4069336;29;20263;-88
2022/03/25 04:37:28;;;;;;;96.30;45.37;;;10.00;99.90;;;;;;4054137;29;20211;-87
2022/03/25 04:39:29;;;;;;;82.77;42.40;;;10.00;99.90;;;;;;4069120;29;20180;-87
2022/03/25 04:41:30;;;;;;;93.13;44.83;;;9.60;99.90;;;;;;4070346;29;20180;-88
2022/03/25 04:43:31;;;;;;;95.43;43.60;;;9.20;99.90;;;;;;4053814;29;20188;-88
2022/03/25 04:45:32;;;;;;;88.83;43.13;;;8.90;99.90;;;;;;4053642;29;20184;-89
2022/03/25 04:47:33;;;;;;;92.10;43.50;;;8.90;99.90;;;;;;4069475;29;20697;-88
2022/03/25 04:49:33;;;;;;;93.27;42.33;;;9.20;99.90;;;;;;4053593;29;20225;-87
2022/03/25 04:51:34;;;;;;;86.63;43.50;;;9.00;99.90;;;;;;4069178;29;20523;-87
2022/03/25 04:53:35;;;;;;;94.07;44.93;;;8.90;99.90;;;;;;4068854;29;20271;-87
2022/03/25 04:55:36;;;;;;;98.53;43.67;;;9.10;99.90;;;;;;4069057;29;20301;-88
2022/03/25 04:57:40;;;;;;;87.50;43.23;;;9.10;99.90;;;;;;4053403;29;20189;-88
2022/03/25 04:59:41;;;;;;;84.70;42.00;;;9.30;99.90;;;;;;4069080;29;20189;-88
2022/03/25 05:01:41;;;;;;;91.93;43.23;;;9.20;99.90;;;;;;4068879;29;20275;-88
2022/03/25 05:03:42;;;;;;;87.00;41.83;;;9.30;99.90;;;;;;4053443;29;20582;-87
2022/03/25 05:05:43;;;;;;;85.70;43.67;;;8.90;99.90;;;;;;4068822;29;20307;-88
2022/03/25 05:07:45;;;;;;;91.83;40.33;;;8.80;99.90;;;;;;4053310;29;20646;-88
2022/03/25 05:09:46;;;;;;;87.17;40.70;;;8.60;99.90;;;;;;4053269;29;20184;-88
2022/03/25 05:11:47;;;;;;;84.40;42.50;;;8.20;99.90;;;;;;4053062;29;20196;-88
2022/03/25 05:13:47;;;;;;;93.37;40.60;;;8.20;99.90;;;;;;4069343;29;20184;-88
2022/03/25 05:15:48;;;;;;;78.33;39.60;;;8.10;99.90;;;;;;4068587;29;20311;-88
2022/03/25 05:17:51;;;;;;;81.30;41.60;;;7.90;99.90;;;;;;4053341;29;20686;-87
2022/03/25 05:19:54;;;;;;;83.80;41.03;;;8.10;99.90;;;;;;4053144;29;20250;-88
2022/03/25 05:21:55;;;;;;;89.10;40.93;;;8.30;99.90;;;;;;4068341;29;20188;-88
2022/03/25 05:23:56;;;;;;;77.60;38.57;;;8.40;99.90;;;;;;4053078;29;20267;-88
2022/03/25 05:25:57;;;;;;;85.30;41.07;;;8.20;99.90;;;;;;4052833;29;20201;-87
2022/03/25 05:27:58;;;;;;;82.77;40.20;;;8.20;99.90;;;;;;4068621;29;20220;-88
2022/03/25 05:29:59;;;;;;;88.63;40.47;;;8.60;99.90;;;;;;4068729;29;20684;-87
2022/03/25 05:32:00;;;;;;;89.43;40.83;;;9.10;99.90;;;;;;4068537;29;20192;-87
2022/03/25 05:34:00;;;;;;;87.10;41.50;;;9.30;99.90;;;;;;4068522;29;20233;-88
2022/03/25 05:36:01;;;;;;;79.90;40.73;;;9.20;99.90;;;;;;4053077;29;20235;-88
2022/03/25 05:38:02;;;;;;;83.17;39.93;;;9.30;99.90;;;;;;4053244;29;20724;-88
2022/03/25 05:40:03;;;;;;;82.90;38.83;;;9.20;99.90;;;;;;4084172;29;20175;-87
2022/03/25 05:42:05;;;;;;;84.50;40.23;;;8.80;99.90;;;;;;4068449;29;20240;-88
2022/03/25 05:44:06;;;;;;;78.03;40.20;;;8.80;99.90;;;;;;4068547;29;20176;-88
2022/03/25 05:46:06;;;;;;;89.73;42.53;;;8.50;99.90;;;;;;4068577;29;20684;-87
2022/03/25 05:48:07;;;;;;;82.53;41.80;;;8.10;99.90;;;;;;4084242;29;20191;-88
2022/03/25 05:50:11;;;;;;;81.50;40.77;;;7.80;99.90;;;;;;4052882;29;20207;-87
2022/03/25 05:52:12;;;;;;;95.67;45.10;;;7.70;99.90;;;;;;4068373;29;20220;-88
2022/03/25 05:54:12;;;;;;;86.90;42.47;;;7.50;99.90;;;;;;4052806;29;20213;-88
2022/03/25 05:56:14;;;;;;;96.00;45.33;;;7.30;99.90;;;;;;4084151;29;20191;-88
2022/03/25 05:58:14;;;;;;;93.57;46.70;;;7.30;99.90;;;;;;4068812;29;20183;-87
2022/03/25 06:00:16;;;;;;;97.10;46.50;;;7.30;99.90;;;;;;4052929;29;20545;-88
2022/03/25 06:02:18;;;;;;;96.10;46.00;;;7.30;99.90;;;;;;4068595;29;20168;-88
2022/03/25 06:04:20;;;;;;;97.73;46.90;;;7.20;99.90;;;;;;4052928;29;20276;-87
2022/03/25 06:06:22;;;;;;;103.67;46.93;;;7.10;99.90;;;;;;4071302;29;20195;-88
2022/03/25 06:08:23;;;;;;;96.53;44.73;;;7.10;99.90;;;;;;4087486;29;20187;-88
2022/03/25 06:10:25;;;;;;;92.40;42.03;;;7.40;99.90;;;;;;4071797;29;20199;-87
2022/03/25 06:12:25;;;;;;;87.43;43.27;;;7.80;99.90;;;;;;4071483;29;20641;-87
2022/03/25 06:14:27;;;;;;;92.10;42.07;;;8.40;99.90;;;;;;4071387;29;20183;-87
2022/03/25 06:16:28;;;;;;;93.37;42.13;;;8.90;99.90;;;;;;4071320;29;20568;-87
2022/03/25 06:18:28;;;;;;;86.23;40.83;;;9.20;99.90;;;;;;4071622;29;20183;-87
2022/03/25 06:20:29;;;;;;;86.40;40.23;;;9.20;99.90;;;;;;4071240;29;20257;-87
2022/03/25 06:22:30;;;;;;;91.17;43.97;;;8.90;99.90;;;;;;4071236;29;20568;-87
2022/03/25 06:24:30;;;;;;;79.33;40.50;;;8.90;99.90;;;;;;4055852;29;20527;-87
2022/03/25 06:26:31;;;;;;;80.37;41.07;;;9.20;99.90;;;;;;4055663;29;20200;-87
2022/03/25 06:28:32;;;;;;;80.33;39.90;;;9.40;99.90;;;;;;4055634;29;20181;-87
2022/03/25 06:30:35;;;;;;;84.20;39.83;;;9.50;99.90;;;;;;4071299;29;20653;-89
2022/03/25 06:32:36;;;;;;;77.50;40.03;;;9.60;99.90;;;;;;4071341;29;20278;-90
2022/03/25 06:34:36;;;;;;;82.70;41.03;;;9.80;99.90;;;;;;4071428;29;20188;-90
2022/03/25 06:36:37;;;;;;;78.43;40.33;;;9.90;99.90;;;;;;4055527;29;20207;-90
2022/03/25 06:38:38;;;;;;;82.73;42.23;;;10.00;99.90;;;;;;4071257;29;20261;-91
2022/03/25 06:40:39;;;;;;;96.57;41.77;;;10.00;99.90;;;;;;4071064;29;20180;-90
2022/03/25 06:42:42;;;;;;;101.00;40.87;;;10.10;99.90;;;;;;4055417;29;20180;-91
2022/03/25 06:44:43;;;;;;;86.63;39.37;;;10.00;99.90;;;;;;4071244;29;20594;-91
2022/03/25 06:46:43;;;;;;;79.90;40.30;;;10.00;99.90;;;;;;4056752;29;20205;-90
2022/03/25 06:48:44;;;;;;;98.93;42.43;;;10.10;99.90;;;;;;4071136;29;20172;-91
2022/03/25 06:50:46;;;;;;;96.27;43.10;;;10.10;99.90;;;;;;4070910;29;20176;-91
2022/03/25 06:52:48;;;;;;;87.60;41.47;;;9.90;99.90;;;;;;4070950;29;20312;-91
2022/03/25 06:54:49;;;;;;;92.07;42.20;;;9.90;99.90;;;;;;4055679;29;20264;-89
2022/03/25 06:56:50;;;;;;;85.27;40.73;;;10.00;99.90;;;;;;4070895;29;20200;-91
2022/03/25 06:58:52;;;;;;;83.77;41.20;;;9.90;99.90;;;;;;4070885;29;20216;-92
2022/03/25 07:00:53;;;;;;;81.50;40.27;;;10.10;99.90;;;;;;4055093;29;20244;-91
2022/03/25 07:02:54;;;;;;;79.77;39.30;;;10.30;99.90;;;;;;4055629;29;20259;-91
2022/03/25 07:04:55;;;;;;;79.87;37.93;;;10.40;99.90;;;;;;4072287;29;20180;-87
2022/03/25 07:06:56;;;;;;;87.03;37.83;;;10.60;99.90;;;;;;4055136;29;20610;-90
2022/03/25 07:08:58;;;;;;;84.23;38.53;;;11.10;99.90;;;;;;4072351;29;20180;-89
2022/03/25 07:10:59;;;;;;;72.10;37.20;;;11.80;99.90;;;;;;4055471;29;20271;-91
2022/03/25 07:13:00;;;;;;;107.80;37.33;;;12.50;99.90;;;;;;4055483;29;20216;-91
2022/03/25 07:15:02;;;;;;;68.30;36.17;;;12.80;99.90;;;;;;4070873;29;20211;-90
2022/03/25 07:17:03;;;;;;;63.77;36.67;;;12.90;99.90;;;;;;4070067;29;20295;-92
2022/03/25 07:19:04;;;;;;;67.13;36.80;;;12.90;99.90;;;;;;4071007;29;20617;-92
2022/03/25 07:21:05;;;;;;;92.07;36.07;;;13.30;99.90;;;;;;4056070;29;20196;-92
2022/03/25 07:23:06;;;;;;;80.40;37.47;;;13.70;99.90;;;;;;4071695;29;20175;-91
2022/03/25 07:25:07;;;;;;;72.00;35.53;;;14.00;99.90;;;;;;4054641;29;20200;-91
2022/03/25 07:27:08;;;;;;;63.07;34.37;;;14.30;99.90;;;;;;4073161;29;20203;-92
2022/03/25 07:29:10;;;;;;;69.53;33.77;;;14.50;99.90;;;;;;4070599;29;20188;-92
2022/03/25 07:31:11;;;;;;;69.60;35.80;;;14.80;99.90;;;;;;4054701;29;20739;-92
2022/03/25 07:33:12;;;;;;;65.13;36.33;;;15.00;99.90;;;;;;4070280;29;20215;-92
2022/03/25 07:35:14;;;;;;;65.37;35.33;;;15.20;99.90;;;;;;4072011;29;20184;-93
2022/03/25 07:37:14;;;;;;;73.60;32.77;;;15.50;99.90;;;;;;4071053;29;20205;-92
2022/03/25 07:39:30;;;;;;;73.87;37.23;;;15.50;99.90;;;;;;4071345;29;20221;-92
2022/03/25 07:41:31;;;;;;;63.13;33.60;;;15.40;99.90;;;;;;4070359;29;20176;-92
2022/03/25 07:43:32;;;;;;;60.17;34.33;;;15.50;99.90;;;;;;4054660;29;20169;-94
2022/03/25 07:45:33;;;;;;;59.50;34.10;;;15.60;99.90;;;;;;4071220;29;20180;-92
2022/03/25 07:47:35;;;;;;;66.10;32.67;;;15.40;99.90;;;;;;4054645;29;20177;-94
2022/03/25 07:49:38;;;;;;;62.33;33.07;;;15.40;99.90;;;;;;4070204;29;20183;-92
2022/03/25 07:51:39;;;;;;;75.30;35.27;;;15.20;99.90;;;;;;4054415;29;20173;-93
2022/03/25 07:53:40;;;;;;;65.77;35.20;;;15.30;99.90;;;;;;4054499;29;20646;-93
2022/03/25 07:55:42;;;;;;;58.43;33.33;;;15.20;99.90;;;;;;4088423;29;20202;-92
2022/03/25 07:57:42;;;;;;;76.60;35.63;;;15.60;99.90;;;;;;4069954;29;20216;-93
2022/03/25 07:59:43;;;;;;;59.45;35.22;;;15.80;99.90;;;;;;4055197;29;20176;-95
2022/03/25 08:01:47;;;;;;;67.67;35.47;;;15.80;99.90;;;;;;4075767;29;20180;-95
2022/03/25 08:04:15;;;;;;;70.32;34.80;;;15.90;99.90;;;;;;4076049;29;20180;-95
2022/03/25 08:07:20;;;;;;;;;;;;;;;;;;;;;
2022/03/25 08:10:04;;;;;;;;;;;;;;;;;;;;;
2022/03/25 08:12:36;;;;;;;63.28;33.05;;;16.20;99.90;;;;;;4074266;29;20180;-95
2022/03/25 08:15:20;;;;;;;61.47;33.00;;;16.50;99.90;;;;;;4075319;29;20188;-95
2022/03/25 08:17:24;;;;;;;62.92;35.00;;;16.40;99.90;;;;;;4072685;29;20184;-96
2022/03/25 08:19:37;;;;;;;63.88;32.72;;;16.40;99.90;;;;;;4058228;29;20736;-95
2022/03/25 08:21:42;;;;;;;67.47;34.08;;;16.20;99.90;;;;;;4059134;29;20169;-95
2022/03/25 08:29:36;;;;;;;71.22;35.95;;;16.10;99.90;;;;;;4074161;29;20188;-95
2022/03/25 08:32:10;;;;;;;71.82;36.10;;;16.40;99.90;;;;;;4075560;29;20183;-96
2022/03/25 08:34:29;;;;;;;64.05;35.42;;;16.30;99.90;;;;;;4073725;29;20202;-96
2022/03/25 08:36:58;;;;;;;66.57;35.42;;;16.10;99.90;;;;;;4056872;29;20200;-95
2022/03/25 08:39:09;;;;;;;65.80;34.78;;;16.40;99.90;;;;;;4056661;29;20192;-95
2022/03/25 08:41:23;;;;;;;69.67;36.50;;;16.40;99.90;;;;;;4055097;29;20256;-95
2022/03/25 08:43:24;;;;;;;74.32;33.85;;;16.30;99.90;;;;;;4054832;29;20197;-95
2022/03/25 08:45:25;;;;;;;73.45;36.42;;;16.30;99.90;;;;;;4070446;29;20180;-95
2022/03/25 08:47:35;;;;;;;69.90;36.72;;;16.40;99.90;;;;;;4086042;29;20649;-95
2022/03/25 08:49:39;;;;;;;64.93;36.35;;;16.80;99.90;;;;;;4055972;29;20177;-94
2022/03/25 08:51:45;;;;;;;61.28;35.83;;;16.80;99.90;;;;;;4070901;29;20267;-95
2022/03/25 08:53:46;;;;;;;70.55;37.20;;;16.80;99.90;;;;;;4070939;29;20216;-94
2022/03/25 08:55:50;;;;;;;74.85;36.83;;;17.10;99.90;;;;;;4070875;29;20635;-95
2022/03/25 08:57:57;;;;;;;63.85;34.60;;;17.30;99.90;;;;;;4056325;29;20181;-94
2022/03/25 09:00:11;;;;;;;;;;;;;;;;;;;;;
2022/03/25 09:02:12;;;;;;;68.00;37.42;;;17.60;99.90;;;;;;4071368;29;20179;-94
2022/03/25 09:04:15;;;;;;;65.45;37.17;;;17.70;99.90;;;;;;4057018;29;20179;-94
2022/03/25 09:06:17;;;;;;;68.45;38.47;;;17.70;99.90;;;;;;4070631;29;20235;-95
2022/03/25 09:08:18;;;;;;;74.97;39.60;;;17.70;99.90;;;;;;4071025;29;20172;-95
2022/03/25 09:10:36;;;;;;;70.95;37.72;;;17.70;99.90;;;;;;4056685;29;20196;-95
2022/03/25 09:12:46;;;;;;;74.57;40.88;;;17.70;99.90;;;;;;4057598;29;20303;-96
2022/03/25 09:14:52;;;;;;;78.05;40.00;;;17.50;99.90;;;;;;4055935;29;20264;-96
2022/03/25 09:16:53;;;;;;;69.95;39.58;;;17.60;99.90;;;;;;4070534;29;20577;-94
2022/03/25 09:18:56;;;;;;;71.05;40.10;;;17.60;99.90;;;;;;4069900;29;20183;-96
2022/03/25 09:21:00;;;;;;;71.90;39.17;;;17.60;99.90;;;;;;4071075;29;20236;-96
2022/03/25 09:23:03;;;;;;;76.70;41.17;;;17.50;99.90;;;;;;4056218;29;20220;-96
2022/03/25 09:25:08;;;;;;;78.70;36.63;;;17.30;99.90;;;;;;4073313;29;20184;-94
2022/03/25 09:27:12;;;;;;;73.47;40.30;;;16.90;99.90;;;;;;4058100;29;20192;-95
2022/03/25 09:29:18;;;;;;;78.82;38.17;;;16.80;99.90;;;;;;4071975;29;20180;-95
2022/03/25 09:31:21;;;;;;;68.57;37.17;;;16.90;99.90;;;;;;4056520;29;20184;-95
2022/03/25 09:33:26;;;;;;;66.00;36.15;;;16.70;99.90;;;;;;4072308;29;20212;-95
2022/03/25 09:36:00;;;;;;;61.45;33.72;;;16.40;99.90;;;;;;4056501;29;20677;-94
2022/03/25 09:38:03;;;;;;;68.22;29.98;;;16.50;99.90;;;;;;4073249;29;20188;-95
2022/03/25 09:40:08;;;;;;;55.33;27.20;;;16.20;99.90;;;;;;4055191;29;20184;-95
2022/03/25 09:42:51;;;;;;;48.63;26.90;;;16.30;99.90;;;;;;4073528;29;20188;-95
2022/03/25 09:45:06;;;;;;;50.78;28.27;;;16.10;99.90;;;;;;4065003;29;20273;-96
2022/03/25 09:53:30;;;;;;;52.78;24.65;;;15.80;99.90;;;;;;4032614;29;20225;-95
2022/03/25 09:58:55;;;;;;;58.67;33.30;;;16.60;99.90;;;;;;4057391;29;20181;-96
2022/03/25 10:01:26;;;;;;;58.63;32.55;;;17.00;99.90;;;;;;4056829;29;20562;-96
2022/03/25 10:03:40;;;;;;;58.88;34.72;;;17.30;99.90;;;;;;4057597;29;20185;-95
2022/03/25 10:06:05;;;;;;;59.50;30.38;;;17.10;99.90;;;;;;4055201;29;20205;-94
2022/03/25 10:08:08;;;;;;;60.35;29.05;;;16.50;99.90;;;;;;4054840;29;20192;-95
2022/03/25 10:10:22;;;;;;;55.42;28.35;;;16.00;99.90;;;;;;4068854;29;20180;-95
2022/03/25 10:12:26;;;;;;;54.47;30.80;;;15.60;99.90;;;;;;4072596;29;20287;-94
2022/03/25 10:15:11;;;;;;;64.60;32.67;;;15.40;99.90;;;;;;4069989;29;20180;-96
2022/03/25 10:17:33;;;;;;;;;;;;;;;;;;;;;
2022/03/25 10:19:48;;;;;;;52.10;26.15;;;15.00;99.90;;;;;;4073557;29;20337;-95
2022/03/25 10:22:29;;;;;;;63.30;27.88;;;15.00;99.90;;;;;;4057263;29;20184;-95
2022/03/25 10:24:49;;;;;;;58.08;25.88;;;15.00;99.90;;;;;;4064236;29;20192;-95
2022/03/25 10:27:32;;;;;;;53.22;24.25;;;15.10;99.90;;;;;;4072237;29;20216;-94
2022/03/25 10:29:35;;;;;;;49.30;23.80;;;15.30;99.90;;;;;;4071449;29;20184;-95
2022/03/25 10:32:26;;;;;;;55.35;26.10;;;15.20;99.90;;;;;;4072119;29;20176;-95
2022/03/25 10:34:36;;;;;;;46.50;23.75;;;15.40;99.90;;;;;;4054847;29;20204;-95
2022/03/25 10:36:38;;;;;;;46.83;23.38;;;15.30;99.90;;;;;;4087557;29;20232;-95
2022/03/25 10:38:55;;;;;;;53.38;22.77;;;15.20;99.90;;;;;;4055959;29;20189;-94
2022/03/25 10:40:57;;;;;;;40.75;20.70;;;15.30;99.90;;;;;;4070464;29;20197;-96
2022/03/25 10:43:09;;;;;;;44.65;23.02;;;15.30;99.90;;;;;;4071142;29;20273;-94
2022/03/25 10:45:30;;;;;;;42.88;21.05;;;15.10;99.90;;;;;;4072346;29;20180;-95
2022/03/25 10:47:34;;;;;;;38.38;19.83;;;15.10;99.90;;;;;;4070355;29;20219;-95
2022/03/25 10:49:43;;;;;;;37.72;17.73;;;15.20;99.90;;;;;;4069861;29;20165;-95
2022/03/25 10:51:52;;;;;;;39.58;19.75;;;15.30;99.90;;;;;;4072033;29;20188;-96